Airfield :
LOGIN :

Register | Disclaimer

   EN    FR    IT 

 










Legend :    VFR   Marginal VFR   IFR   Intensive IFR   Very Intensive IFR
Visi :
Ceiling :
>= 8 km
>= 3000ft
5 to 8 km
1000 to 3000 ft
1500m to 5 km
500 to 1000 ft
800 to 1500m
200 to 500 ft
< 800m
< 200 ft
Symbols :   Thunderstorms  Fog  Heavy snow  Heavy precipitations  Wind > 20 kt
SIGMETs :     Misc.  Thunderstorms  Icing  Turbulence  Mountain Waves  Volcanic Ashes







- Airport Elevation : 16 ft
- IATA code : EAS


LESO - San Sebastian Fuenterrabia

CURRENT METAR :
  • 212230Z AUTO 19006KT 170V230 CAVOK 25/15 Q1006

EXPIRED METARs :
  • 212200Z AUTO 18008KT 150V210 9999 NCD 26/15 Q1006
  • 212130Z AUTO 19010KT CAVOK 26/15 Q1006
  • 212100Z AUTO 19013KT CAVOK 27/14 Q1006
  • 212030Z AUTO 19010KT 170V230 CAVOK 27/14 Q1006

TAF TAF LESO
Valid from the 21 at 18:00 until the 22 at 18:00 UTC


211700Z 2118/2218 19009KT 9999 FEW030 SCT045 TX24/2214Z TN16/2205Z
PROB30
TEMPO 2118/2202 17015G25KT FEW040TCU
BECMG 2200/2203 32010KT
PROB30
TEMPO 2200/2204 30015G25KT
TEMPO 2200/2207 3000 RA SHRA SCT020TCU
BECMG 2205/2207 22007KT
TEMPO 2214/2218 34010KT SCT030TCU
No reported NOTAMs for that airfield.



MET'MAP, your aeronautical weather chart ! - Copyright ORBIFLY December 2007 - Disclaimer

ORBIFLY MET'MAP TEAM :

Programming & Development : Alexandra Zaïnal
Concept & Development : Baudouin d'Aumeries
Co-Development & Prog : Marc-Olivier Méhu
Technical & hardware support : Manuel Goepfert

Contact : metmap@orbifly.com




SOURCES & CREDITS :

   NOAA